sensor_id;sensor_type;location;lat;lon;timestamp;temperature;humidity
2363;DHT22;1192;51.664;7.626;2022-07-10T00:02:03;20.00;99.90
2363;DHT22;1192;51.664;7.626;2022-07-10T00:04:30;20.00;99.90
2363;DHT22;1192;51.664;7.626;2022-07-10T00:06:57;19.90;99.90
2363;DHT22;1192;51.664;7.626;2022-07-10T00:09:26;19.90;99.90
2363;DHT22;1192;51.664;7.626;2022-07-10T00:11:53;19.90;99.90
2363;DHT22;1192;51.664;7.626;2022-07-10T00:14:20;19.90;99.90
2363;DHT22;1192;51.664;7.626;2022-07-10T00:16:47;19.90;99.90
2363;DHT22;1192;51.664;7.626;2022-07-10T00:19:13;19.90;99.90
2363;DHT22;1192;51.664;7.626;2022-07-10T00:21:40;19.90;99.90
2363;DHT22;1192;51.664;7.626;2022-07-10T00:24:07;19.90;99.90
2363;DHT22;1192;51.664;7.626;2022-07-10T00:26:37;19.90;99.90
2363;DHT22;1192;51.664;7.626;2022-07-10T00:29:03;19.80;99.90
2363;DHT22;1192;51.664;7.626;2022-07-10T00:31:30;19.80;99.90
2363;DHT22;1192;51.664;7.626;2022-07-10T00:33:57;19.80;99.90
2363;DHT22;1192;51.664;7.626;2022-07-10T00:36:23;19.80;99.90
2363;DHT22;1192;51.664;7.626;2022-07-10T00:38:50;19.80;99.90
2363;DHT22;1192;51.664;7.626;2022-07-10T00:41:17;19.80;99.90
2363;DHT22;1192;51.664;7.626;2022-07-10T00:43:55;19.80;99.90
2363;DHT22;1192;51.664;7.626;2022-07-10T00:46:23;19.80;99.90
2363;DHT22;1192;51.664;7.626;2022-07-10T00:48:50;19.70;99.90
2363;DHT22;1192;51.664;7.626;2022-07-10T00:51:19;19.70;99.90
2363;DHT22;1192;51.664;7.626;2022-07-10T00:53:48;19.70;99.90
2363;DHT22;1192;51.664;7.626;2022-07-10T00:56:16;19.70;99.90
2363;DHT22;1192;51.664;7.626;2022-07-10T00:58:43;19.70;99.90
2363;DHT22;1192;51.664;7.626;2022-07-10T01:01:13;19.70;99.90
2363;DHT22;1192;51.664;7.626;2022-07-10T01:03:40;19.70;99.90
2363;DHT22;1192;51.664;7.626;2022-07-10T01:06:08;19.70;99.90
2363;DHT22;1192;51.664;7.626;2022-07-10T01:08:35;19.70;99.90
2363;DHT22;1192;51.664;7.626;2022-07-10T01:11:02;19.60;99.90
2363;DHT22;1192;51.664;7.626;2022-07-10T01:13:29;19.60;99.90
2363;DHT22;1192;51.664;7.626;2022-07-10T01:15:57;19.60;99.90
2363;DHT22;1192;51.664;7.626;2022-07-10T01:18:26;19.60;99.90
2363;DHT22;1192;51.664;7.626;2022-07-10T01:20:55;19.60;99.90
2363;DHT22;1192;51.664;7.626;2022-07-10T01:23:22;19.60;99.90
2363;DHT22;1192;51.664;7.626;2022-07-10T01:25:50;19.60;99.90
2363;DHT22;1192;51.664;7.626;2022-07-10T01:28:17;19.50;99.90
2363;DHT22;1192;51.664;7.626;2022-07-10T01:30:43;19.50;99.90
2363;DHT22;1192;51.664;7.626;2022-07-10T01:33:10;19.50;99.90
2363;DHT22;1192;51.664;7.626;2022-07-10T01:35:37;19.50;99.90
2363;DHT22;1192;51.664;7.626;2022-07-10T01:38:05;19.50;99.90
2363;DHT22;1192;51.664;7.626;2022-07-10T01:40:33;19.50;99.90
2363;DHT22;1192;51.664;7.626;2022-07-10T01:43:00;19.50;99.90
2363;DHT22;1192;51.664;7.626;2022-07-10T01:45:27;19.50;99.90
2363;DHT22;1192;51.664;7.626;2022-07-10T01:47:53;19.50;99.90
2363;DHT22;1192;51.664;7.626;2022-07-10T01:50:20;19.50;99.90
2363;DHT22;1192;51.664;7.626;2022-07-10T01:52:47;19.40;99.90
2363;DHT22;1192;51.664;7.626;2022-07-10T01:55:15;19.40;99.90
2363;DHT22;1192;51.664;7.626;2022-07-10T01:57:42;19.40;99.90
2363;DHT22;1192;51.664;7.626;2022-07-10T02:00:09;19.40;99.90
2363;DHT22;1192;51.664;7.626;2022-07-10T02:02:36;19.40;99.90
2363;DHT22;1192;51.664;7.626;2022-07-10T02:05:03;19.40;99.90
2363;DHT22;1192;51.664;7.626;2022-07-10T02:07:29;19.40;99.90
2363;DHT22;1192;51.664;7.626;2022-07-10T02:09:56;19.40;99.90
2363;DHT22;1192;51.664;7.626;2022-07-10T02:12:24;19.40;99.90
2363;DHT22;1192;51.664;7.626;2022-07-10T02:14:51;19.40;99.90
2363;DHT22;1192;51.664;7.626;2022-07-10T02:17:17;19.30;99.90
2363;DHT22;1192;51.664;7.626;2022-07-10T02:19:44;19.30;99.90
2363;DHT22;1192;51.664;7.626;2022-07-10T02:22:11;19.30;99.90
2363;DHT22;1192;51.664;7.626;2022-07-10T02:24:37;19.30;99.90
2363;DHT22;1192;51.664;7.626;2022-07-10T02:27:04;19.30;99.90
2363;DHT22;1192;51.664;7.626;2022-07-10T02:29:33;19.30;99.90
2363;DHT22;1192;51.664;7.626;2022-07-10T02:32:00;19.30;99.90
2363;DHT22;1192;51.664;7.626;2022-07-10T02:34:28;19.30;99.90
2363;DHT22;1192;51.664;7.626;2022-07-10T02:36:55;19.20;99.90
2363;DHT22;1192;51.664;7.626;2022-07-10T02:39:22;19.20;99.90
2363;DHT22;1192;51.664;7.626;2022-07-10T02:41:49;19.20;99.90
2363;DHT22;1192;51.664;7.626;2022-07-10T02:44:15;19.20;99.90
2363;DHT22;1192;51.664;7.626;2022-07-10T02:46:43;19.20;99.90
2363;DHT22;1192;51.664;7.626;2022-07-10T02:49:10;19.20;99.90
2363;DHT22;1192;51.664;7.626;2022-07-10T02:51:37;19.20;99.90
2363;DHT22;1192;51.664;7.626;2022-07-10T02:54:04;19.10;99.90
2363;DHT22;1192;51.664;7.626;2022-07-10T02:56:30;19.20;99.90
2363;DHT22;1192;51.664;7.626;2022-07-10T02:58:57;19.20;99.90
2363;DHT22;1192;51.664;7.626;2022-07-10T03:01:24;19.20;99.90
2363;DHT22;1192;51.664;7.626;2022-07-10T03:03:52;19.10;99.90
2363;DHT22;1192;51.664;7.626;2022-07-10T03:06:19;19.20;99.90
2363;DHT22;1192;51.664;7.626;2022-07-10T03:08:46;19.10;99.90
2363;DHT22;1192;51.664;7.626;2022-07-10T03:11:12;19.10;99.90
2363;DHT22;1192;51.664;7.626;2022-07-10T03:13:39;19.10;99.90
2363;DHT22;1192;51.664;7.626;2022-07-10T03:16:06;19.10;99.90
2363;DHT22;1192;51.664;7.626;2022-07-10T03:18:33;19.10;99.90
2363;DHT22;1192;51.664;7.626;2022-07-10T03:21:01;19.10;99.90
2363;DHT22;1192;51.664;7.626;2022-07-10T03:23:28;19.10;99.90
2363;DHT22;1192;51.664;7.626;2022-07-10T03:25:55;19.00;99.90
2363;DHT22;1192;51.664;7.626;2022-07-10T03:28:22;19.10;99.90
2363;DHT22;1192;51.664;7.626;2022-07-10T03:30:49;19.10;99.90
2363;DHT22;1192;51.664;7.626;2022-07-10T03:33:15;19.00;99.90
2363;DHT22;1192;51.664;7.626;2022-07-10T03:35:42;19.00;99.90
2363;DHT22;1192;51.664;7.626;2022-07-10T03:38:11;19.00;99.90
2363;DHT22;1192;51.664;7.626;2022-07-10T03:40:37;19.00;99.90
2363;DHT22;1192;51.664;7.626;2022-07-10T03:43:04;19.00;99.90
2363;DHT22;1192;51.664;7.626;2022-07-10T03:45:31;19.00;99.90
2363;DHT22;1192;51.664;7.626;2022-07-10T03:47:58;19.00;99.90
2363;DHT22;1192;51.664;7.626;2022-07-10T03:50:24;19.00;99.90
2363;DHT22;1192;51.664;7.626;2022-07-10T03:52:51;18.90;99.90
2363;DHT22;1192;51.664;7.626;2022-07-10T03:55:19;18.90;99.90
2363;DHT22;1192;51.664;7.626;2022-07-10T03:57:46;18.90;99.90
2363;DHT22;1192;51.664;7.626;2022-07-10T04:00:22;18.90;99.90
2363;DHT22;1192;51.664;7.626;2022-07-10T04:02:54;18.90;99.90
2363;DHT22;1192;51.664;7.626;2022-07-10T04:05:21;18.90;99.90
2363;DHT22;1192;51.664;7.626;2022-07-10T04:07:48;18.90;99.90
2363;DHT22;1192;51.664;7.626;2022-07-10T04:10:15;18.90;99.90
2363;DHT22;1192;51.664;7.626;2022-07-10T04:12:44;18.90;99.90
2363;DHT22;1192;51.664;7.626;2022-07-10T04:15:11;18.90;99.90
2363;DHT22;1192;51.664;7.626;2022-07-10T04:17:37;18.90;99.90
2363;DHT22;1192;51.664;7.626;2022-07-10T04:20:05;18.90;99.90
2363;DHT22;1192;51.664;7.626;2022-07-10T04:22:32;18.80;99.90
2363;DHT22;1192;51.664;7.626;2022-07-10T04:24:59;18.90;99.90
2363;DHT22;1192;51.664;7.626;2022-07-10T04:27:26;18.90;99.90
2363;DHT22;1192;51.664;7.626;2022-07-10T04:29:54;18.90;99.90
2363;DHT22;1192;51.664;7.626;2022-07-10T04:32:21;18.80;99.90
2363;DHT22;1192;51.664;7.626;2022-07-10T04:34:48;18.80;99.90
2363;DHT22;1192;51.664;7.626;2022-07-10T04:37:16;18.80;99.90
2363;DHT22;1192;51.664;7.626;2022-07-10T04:39:43;18.80;99.90
2363;DHT22;1192;51.664;7.626;2022-07-10T04:42:09;18.80;99.90
2363;DHT22;1192;51.664;7.626;2022-07-10T04:44:36;18.80;99.90
2363;DHT22;1192;51.664;7.626;2022-07-10T04:47:05;18.80;99.90
2363;DHT22;1192;51.664;7.626;2022-07-10T04:49:33;18.80;99.90
2363;DHT22;1192;51.664;7.626;2022-07-10T04:52:00;18.80;99.90
2363;DHT22;1192;51.664;7.626;2022-07-10T04:54:27;18.80;99.90
2363;DHT22;1192;51.664;7.626;2022-07-10T04:56:54;18.80;99.90
2363;DHT22;1192;51.664;7.626;2022-07-10T04:59:21;18.80;99.90
2363;DHT22;1192;51.664;7.626;2022-07-10T05:01:47;18.80;99.90
2363;DHT22;1192;51.664;7.626;2022-07-10T05:04:16;18.80;99.90
2363;DHT22;1192;51.664;7.626;2022-07-10T05:06:43;18.70;99.90
2363;DHT22;1192;51.664;7.626;2022-07-10T05:09:09;18.80;99.90
2363;DHT22;1192;51.664;7.626;2022-07-10T05:11:36;18.70;99.90
2363;DHT22;1192;51.664;7.626;2022-07-10T05:14:03;18.80;99.90
2363;DHT22;1192;51.664;7.626;2022-07-10T05:16:30;18.80;99.90
2363;DHT22;1192;51.664;7.626;2022-07-10T05:18:56;18.80;99.90
2363;DHT22;1192;51.664;7.626;2022-07-10T05:21:24;18.80;99.90
2363;DHT22;1192;51.664;7.626;2022-07-10T05:23:54;18.80;99.90
2363;DHT22;1192;51.664;7.626;2022-07-10T05:26:21;18.70;99.90
2363;DHT22;1192;51.664;7.626;2022-07-10T05:28:48;18.70;99.90
2363;DHT22;1192;51.664;7.626;2022-07-10T05:31:15;18.80;99.90
2363;DHT22;1192;51.664;7.626;2022-07-10T05:33:42;18.80;99.90
2363;DHT22;1192;51.664;7.626;2022-07-10T05:36:09;18.80;99.90
2363;DHT22;1192;51.664;7.626;2022-07-10T05:38:37;18.90;99.90
2363;DHT22;1192;51.664;7.626;2022-07-10T05:41:04;18.90;99.90
2363;DHT22;1192;51.664;7.626;2022-07-10T05:43:31;19.00;99.90
2363;DHT22;1192;51.664;7.626;2022-07-10T05:45:58;19.00;99.90
2363;DHT22;1192;51.664;7.626;2022-07-10T05:48:25;19.10;99.90
2363;DHT22;1192;51.664;7.626;2022-07-10T05:50:52;19.10;99.90
2363;DHT22;1192;51.664;7.626;2022-07-10T05:53:18;19.20;99.90
2363;DHT22;1192;51.664;7.626;2022-07-10T05:55:47;19.10;99.90
2363;DHT22;1192;51.664;7.626;2022-07-10T05:58:14;19.20;99.90
2363;DHT22;1192;51.664;7.626;2022-07-10T06:00:41;19.20;99.90
2363;DHT22;1192;51.664;7.626;2022-07-10T06:03:09;19.10;99.90
2363;DHT22;1192;51.664;7.626;2022-07-10T06:05:36;19.20;99.90
2363;DHT22;1192;51.664;7.626;2022-07-10T06:08:04;19.20;99.90
2363;DHT22;1192;51.664;7.626;2022-07-10T06:10:31;19.20;99.90
2363;DHT22;1192;51.664;7.626;2022-07-10T06:12:59;19.20;99.90
2363;DHT22;1192;51.664;7.626;2022-07-10T06:15:26;19.20;99.90
2363;DHT22;1192;51.664;7.626;2022-07-10T06:17:56;19.20;99.90
2363;DHT22;1192;51.664;7.626;2022-07-10T06:20:23;19.30;99.90
2363;DHT22;1192;51.664;7.626;2022-07-10T06:22:50;19.30;99.90
2363;DHT22;1192;51.664;7.626;2022-07-10T06:25:17;19.40;99.90
2363;DHT22;1192;51.664;7.626;2022-07-10T06:27:43;19.60;99.90
2363;DHT22;1192;51.664;7.626;2022-07-10T06:30:12;19.70;99.90
2363;DHT22;1192;51.664;7.626;2022-07-10T06:32:39;19.80;99.90
2363;DHT22;1192;51.664;7.626;2022-07-10T06:35:06;20.00;99.90
2363;DHT22;1192;51.664;7.626;2022-07-10T06:37:34;20.20;99.90
2363;DHT22;1192;51.664;7.626;2022-07-10T06:40:01;20.40;99.90
2363;DHT22;1192;51.664;7.626;2022-07-10T06:42:27;20.50;99.90
2363;DHT22;1192;51.664;7.626;2022-07-10T06:44:54;20.50;99.90
2363;DHT22;1192;51.664;7.626;2022-07-10T06:47:23;20.50;99.90
2363;DHT22;1192;51.664;7.626;2022-07-10T06:50:08;20.50;99.90
2363;DHT22;1192;51.664;7.626;2022-07-10T06:52:35;20.50;99.90
2363;DHT22;1192;51.664;7.626;2022-07-10T06:55:03;20.30;99.90
2363;DHT22;1192;51.664;7.626;2022-07-10T06:57:30;20.20;99.90
2363;DHT22;1192;51.664;7.626;2022-07-10T06:59:57;20.00;99.90
2363;DHT22;1192;51.664;7.626;2022-07-10T07:02:26;19.90;99.90
2363;DHT22;1192;51.664;7.626;2022-07-10T07:04:52;19.80;99.90
2363;DHT22;1192;51.664;7.626;2022-07-10T07:07:19;19.80;99.90
2363;DHT22;1192;51.664;7.626;2022-07-10T07:09:46;19.70;99.90
2363;DHT22;1192;51.664;7.626;2022-07-10T07:12:15;19.60;99.90
2363;DHT22;1192;51.664;7.626;2022-07-10T07:14:42;19.60;99.90
2363;DHT22;1192;51.664;7.626;2022-07-10T07:17:09;19.60;99.90
2363;DHT22;1192;51.664;7.626;2022-07-10T07:19:39;19.50;99.90
2363;DHT22;1192;51.664;7.626;2022-07-10T07:22:24;19.50;99.90
2363;DHT22;1192;51.664;7.626;2022-07-10T07:25:09;19.40;99.90
2363;DHT22;1192;51.664;7.626;2022-07-10T07:27:38;19.40;99.90
2363;DHT22;1192;51.664;7.626;2022-07-10T07:30:06;19.30;99.90
2363;DHT22;1192;51.664;7.626;2022-07-10T07:32:34;19.30;99.90
2363;DHT22;1192;51.664;7.626;2022-07-10T07:35:02;19.30;99.90
2363;DHT22;1192;51.664;7.626;2022-07-10T07:37:37;19.30;99.90
2363;DHT22;1192;51.664;7.626;2022-07-10T07:40:06;19.30;99.90
2363;DHT22;1192;51.664;7.626;2022-07-10T07:42:33;19.20;99.90
2363;DHT22;1192;51.664;7.626;2022-07-10T07:45:00;19.20;99.90
2363;DHT22;1192;51.664;7.626;2022-07-10T07:47:27;19.20;99.90
2363;DHT22;1192;51.664;7.626;2022-07-10T07:49:54;19.20;99.90
2363;DHT22;1192;51.664;7.626;2022-07-10T07:52:22;19.20;99.90
2363;DHT22;1192;51.664;7.626;2022-07-10T07:54:49;19.20;99.90
2363;DHT22;1192;51.664;7.626;2022-07-10T07:57:17;19.20;99.90
2363;DHT22;1192;51.664;7.626;2022-07-10T07:59:44;19.20;99.90
2363;DHT22;1192;51.664;7.626;2022-07-10T08:02:12;19.20;99.90
2363;DHT22;1192;51.664;7.626;2022-07-10T08:04:39;19.20;99.90
2363;DHT22;1192;51.664;7.626;2022-07-10T08:07:06;19.20;99.90
2363;DHT22;1192;51.664;7.626;2022-07-10T08:09:34;19.20;99.90
2363;DHT22;1192;51.664;7.626;2022-07-10T08:12:01;19.20;99.90
2363;DHT22;1192;51.664;7.626;2022-07-10T08:14:28;19.10;99.90
2363;DHT22;1192;51.664;7.626;2022-07-10T08:16:54;19.20;99.90
2363;DHT22;1192;51.664;7.626;2022-07-10T08:19:21;19.20;99.90
2363;DHT22;1192;51.664;7.626;2022-07-10T08:21:48;19.20;99.90
2363;DHT22;1192;51.664;7.626;2022-07-10T08:24:14;19.10;99.90
2363;DHT22;1192;51.664;7.626;2022-07-10T08:26:43;19.10;99.90
2363;DHT22;1192;51.664;7.626;2022-07-10T08:29:09;19.10;99.90
2363;DHT22;1192;51.664;7.626;2022-07-10T08:31:36;19.10;99.90
2363;DHT22;1192;51.664;7.626;2022-07-10T08:34:05;19.10;99.90
2363;DHT22;1192;51.664;7.626;2022-07-10T08:36:31;19.20;99.90
2363;DHT22;1192;51.664;7.626;2022-07-10T08:38:58;19.10;99.90
2363;DHT22;1192;51.664;7.626;2022-07-10T08:41:26;19.10;99.90
2363;DHT22;1192;51.664;7.626;2022-07-10T08:43:54;19.10;99.90
2363;DHT22;1192;51.664;7.626;2022-07-10T08:46:21;19.20;99.90
2363;DHT22;1192;51.664;7.626;2022-07-10T08:48:49;19.20;99.90
2363;DHT22;1192;51.664;7.626;2022-07-10T08:51:24;19.20;99.90
2363;DHT22;1192;51.664;7.626;2022-07-10T08:53:51;19.10;99.90
2363;DHT22;1192;51.664;7.626;2022-07-10T08:56:19;19.10;99.90
2363;DHT22;1192;51.664;7.626;2022-07-10T08:58:47;19.10;99.90
2363;DHT22;1192;51.664;7.626;2022-07-10T09:01:17;19.10;99.90
2363;DHT22;1192;51.664;7.626;2022-07-10T09:03:48;19.10;99.90
2363;DHT22;1192;51.664;7.626;2022-07-10T09:06:15;19.10;99.90
2363;DHT22;1192;51.664;7.626;2022-07-10T09:08:57;19.10;99.90
2363;DHT22;1192;51.664;7.626;2022-07-10T09:11:24;19.10;99.90
2363;DHT22;1192;51.664;7.626;2022-07-10T09:13:55;19.10;99.90
2363;DHT22;1192;51.664;7.626;2022-07-10T09:16:25;19.10;99.90
2363;DHT22;1192;51.664;7.626;2022-07-10T09:18:52;19.10;99.90
2363;DHT22;1192;51.664;7.626;2022-07-10T09:21:19;19.10;99.90
2363;DHT22;1192;51.664;7.626;2022-07-10T09:23:47;19.10;99.90
2363;DHT22;1192;51.664;7.626;2022-07-10T09:26:14;19.10;99.90
2363;DHT22;1192;51.664;7.626;2022-07-10T09:28:40;19.10;99.90
2363;DHT22;1192;51.664;7.626;2022-07-10T09:31:07;19.10;99.90
2363;DHT22;1192;51.664;7.626;2022-07-10T09:33:35;19.10;99.90
2363;DHT22;1192;51.664;7.626;2022-07-10T09:36:06;19.10;99.90
2363;DHT22;1192;51.664;7.626;2022-07-10T09:38:53;19.10;99.90
2363;DHT22;1192;51.664;7.626;2022-07-10T09:41:25;19.20;99.90
2363;DHT22;1192;51.664;7.626;2022-07-10T09:43:53;19.30;99.90
2363;DHT22;1192;51.664;7.626;2022-07-10T09:46:23;19.30;99.90
2363;DHT22;1192;51.664;7.626;2022-07-10T09:49:03;19.30;99.90
2363;DHT22;1192;51.664;7.626;2022-07-10T09:51:31;19.30;99.90
2363;DHT22;1192;51.664;7.626;2022-07-10T09:54:01;19.30;99.90
2363;DHT22;1192;51.664;7.626;2022-07-10T09:56:32;19.30;99.90
2363;DHT22;1192;51.664;7.626;2022-07-10T09:59:00;19.30;99.90
2363;DHT22;1192;51.664;7.626;2022-07-10T10:01:31;19.30;99.90
2363;DHT22;1192;51.664;7.626;2022-07-10T10:03:58;19.30;99.90
2363;DHT22;1192;51.664;7.626;2022-07-10T10:06:30;19.30;99.90
2363;DHT22;1192;51.664;7.626;2022-07-10T10:09:03;19.30;99.90
2363;DHT22;1192;51.664;7.626;2022-07-10T10:11:32;19.30;99.90
2363;DHT22;1192;51.664;7.626;2022-07-10T10:14:00;19.30;99.90
2363;DHT22;1192;51.664;7.626;2022-07-10T10:16:27;19.30;99.90
2363;DHT22;1192;51.664;7.626;2022-07-10T10:18:55;19.30;99.90
2363;DHT22;1192;51.664;7.626;2022-07-10T10:21:41;19.30;99.90
2363;DHT22;1192;51.664;7.626;2022-07-10T10:24:08;19.40;99.90
2363;DHT22;1192;51.664;7.626;2022-07-10T10:26:35;19.40;99.90
2363;DHT22;1192;51.664;7.626;2022-07-10T10:29:03;19.40;99.90
2363;DHT22;1192;51.664;7.626;2022-07-10T10:31:32;19.40;99.90
2363;DHT22;1192;51.664;7.626;2022-07-10T10:33:59;19.40;99.90
2363;DHT22;1192;51.664;7.626;2022-07-10T10:36:47;19.40;99.90
2363;DHT22;1192;51.664;7.626;2022-07-10T10:39:15;19.40;99.90
2363;DHT22;1192;51.664;7.626;2022-07-10T10:41:50;19.40;99.90
2363;DHT22;1192;51.664;7.626;2022-07-10T10:44:28;19.40;99.90
2363;DHT22;1192;51.664;7.626;2022-07-10T10:47:07;19.40;99.90
2363;DHT22;1192;51.664;7.626;2022-07-10T10:49:52;19.40;99.90
2363;DHT22;1192;51.664;7.626;2022-07-10T10:52:20;19.40;99.90
2363;DHT22;1192;51.664;7.626;2022-07-10T10:55:05;19.40;99.90
2363;DHT22;1192;51.664;7.626;2022-07-10T10:57:41;19.40;99.90
2363;DHT22;1192;51.664;7.626;2022-07-10T11:03:22;19.40;99.90
2363;DHT22;1192;51.664;7.626;2022-07-10T11:05:50;19.40;99.90
2363;DHT22;1192;51.664;7.626;2022-07-10T11:08:39;19.40;99.90
2363;DHT22;1192;51.664;7.626;2022-07-10T11:11:37;19.50;99.90
2363;DHT22;1192;51.664;7.626;2022-07-10T11:14:06;19.50;99.90
2363;DHT22;1192;51.664;7.626;2022-07-10T11:16:33;19.40;99.90
2363;DHT22;1192;51.664;7.626;2022-07-10T11:19:01;19.50;99.90
2363;DHT22;1192;51.664;7.626;2022-07-10T11:21:29;19.50;99.90
2363;DHT22;1192;51.664;7.626;2022-07-10T11:24:08;19.50;99.90
2363;DHT22;1192;51.664;7.626;2022-07-10T11:26:46;19.50;99.90
2363;DHT22;1192;51.664;7.626;2022-07-10T11:29:18;19.50;99.90
2363;DHT22;1192;51.664;7.626;2022-07-10T11:31:52;19.50;99.90
2363;DHT22;1192;51.664;7.626;2022-07-10T11:34:19;19.50;99.90
2363;DHT22;1192;51.664;7.626;2022-07-10T11:36:47;19.40;99.90
2363;DHT22;1192;51.664;7.626;2022-07-10T11:39:15;19.50;99.90
2363;DHT22;1192;51.664;7.626;2022-07-10T11:41:43;19.50;99.90
2363;DHT22;1192;51.664;7.626;2022-07-10T11:44:13;19.50;99.90
2363;DHT22;1192;51.664;7.626;2022-07-10T11:46:40;19.50;99.90
2363;DHT22;1192;51.664;7.626;2022-07-10T11:49:09;19.50;99.90
2363;DHT22;1192;51.664;7.626;2022-07-10T11:51:37;19.50;99.90
2363;DHT22;1192;51.664;7.626;2022-07-10T11:54:06;19.50;99.90
2363;DHT22;1192;51.664;7.626;2022-07-10T11:56:36;19.50;99.90
2363;DHT22;1192;51.664;7.626;2022-07-10T11:59:06;19.50;99.90
2363;DHT22;1192;51.664;7.626;2022-07-10T12:01:34;19.50;99.90
2363;DHT22;1192;51.664;7.626;2022-07-10T12:04:03;19.60;99.90
2363;DHT22;1192;51.664;7.626;2022-07-10T12:06:31;19.60;99.90
2363;DHT22;1192;51.664;7.626;2022-07-10T12:09:02;19.60;99.90
2363;DHT22;1192;51.664;7.626;2022-07-10T12:11:29;19.60;99.90
2363;DHT22;1192;51.664;7.626;2022-07-10T12:14:09;19.60;99.90
2363;DHT22;1192;51.664;7.626;2022-07-10T12:16:36;19.60;99.90
2363;DHT22;1192;51.664;7.626;2022-07-10T12:19:04;19.60;99.90
2363;DHT22;1192;51.664;7.626;2022-07-10T12:21:32;19.60;99.90
2363;DHT22;1192;51.664;7.626;2022-07-10T12:23:59;19.70;99.90
2363;DHT22;1192;51.664;7.626;2022-07-10T12:26:31;19.70;99.90
2363;DHT22;1192;51.664;7.626;2022-07-10T12:29:00;19.70;99.90
2363;DHT22;1192;51.664;7.626;2022-07-10T12:31:28;19.80;99.90
2363;DHT22;1192;51.664;7.626;2022-07-10T12:33:59;19.80;99.90
2363;DHT22;1192;51.664;7.626;2022-07-10T12:36:41;19.80;99.90
2363;DHT22;1192;51.664;7.626;2022-07-10T12:39:09;19.80;99.90
2363;DHT22;1192;51.664;7.626;2022-07-10T12:41:57;19.90;99.90
2363;DHT22;1192;51.664;7.626;2022-07-10T12:44:34;19.90;99.90
2363;DHT22;1192;51.664;7.626;2022-07-10T12:47:02;20.00;99.90
2363;DHT22;1192;51.664;7.626;2022-07-10T12:49:29;20.00;99.90
2363;DHT22;1192;51.664;7.626;2022-07-10T12:51:55;19.90;99.90
2363;DHT22;1192;51.664;7.626;2022-07-10T12:54:35;19.90;99.90
2363;DHT22;1192;51.664;7.626;2022-07-10T12:57:04;19.90;99.90
2363;DHT22;1192;51.664;7.626;2022-07-10T12:59:34;19.90;99.90
2363;DHT22;1192;51.664;7.626;2022-07-10T13:02:17;19.80;99.90
2363;DHT22;1192;51.664;7.626;2022-07-10T13:04:52;19.80;99.90
2363;DHT22;1192;51.664;7.626;2022-07-10T13:07:20;19.80;99.90
2363;DHT22;1192;51.664;7.626;2022-07-10T13:09:48;19.80;99.90
2363;DHT22;1192;51.664;7.626;2022-07-10T13:12:16;19.70;99.90
2363;DHT22;1192;51.664;7.626;2022-07-10T13:14:44;19.70;99.90
2363;DHT22;1192;51.664;7.626;2022-07-10T13:17:11;19.70;99.90
2363;DHT22;1192;51.664;7.626;2022-07-10T13:19:38;19.70;99.90
2363;DHT22;1192;51.664;7.626;2022-07-10T13:22:05;19.70;99.90
2363;DHT22;1192;51.664;7.626;2022-07-10T13:24:31;19.70;99.90
2363;DHT22;1192;51.664;7.626;2022-07-10T13:26:58;19.70;99.90
2363;DHT22;1192;51.664;7.626;2022-07-10T13:29:25;19.70;99.90
2363;DHT22;1192;51.664;7.626;2022-07-10T13:31:53;19.70;99.90
2363;DHT22;1192;51.664;7.626;2022-07-10T13:34:20;19.70;99.90
2363;DHT22;1192;51.664;7.626;2022-07-10T13:36:46;19.80;99.90
2363;DHT22;1192;51.664;7.626;2022-07-10T13:39:13;19.80;99.90
2363;DHT22;1192;51.664;7.626;2022-07-10T13:41:40;19.80;99.90
2363;DHT22;1192;51.664;7.626;2022-07-10T13:44:06;19.80;99.90
2363;DHT22;1192;51.664;7.626;2022-07-10T13:46:33;19.80;99.90
2363;DHT22;1192;51.664;7.626;2022-07-10T13:49:03;19.80;99.90
2363;DHT22;1192;51.664;7.626;2022-07-10T13:51:30;19.80;99.90
2363;DHT22;1192;51.664;7.626;2022-07-10T13:53:57;19.80;99.90
2363;DHT22;1192;51.664;7.626;2022-07-10T13:56:23;19.80;99.90
2363;DHT22;1192;51.664;7.626;2022-07-10T13:58:50;19.90;99.90
2363;DHT22;1192;51.664;7.626;2022-07-10T14:01:17;19.90;99.90
2363;DHT22;1192;51.664;7.626;2022-07-10T14:03:44;19.90;99.90
2363;DHT22;1192;51.664;7.626;2022-07-10T14:06:12;19.90;99.90
2363;DHT22;1192;51.664;7.626;2022-07-10T14:08:38;19.90;99.90
2363;DHT22;1192;51.664;7.626;2022-07-10T14:11:06;19.90;99.90
2363;DHT22;1192;51.664;7.626;2022-07-10T14:13:32;19.80;99.90
2363;DHT22;1192;51.664;7.626;2022-07-10T14:15:59;19.80;99.90
2363;DHT22;1192;51.664;7.626;2022-07-10T14:18:28;19.80;99.90
2363;DHT22;1192;51.664;7.626;2022-07-10T14:21:03;19.80;99.90
2363;DHT22;1192;51.664;7.626;2022-07-10T14:23:32;19.80;99.90
2363;DHT22;1192;51.664;7.626;2022-07-10T14:25:58;19.80;99.90
2363;DHT22;1192;51.664;7.626;2022-07-10T14:28:25;19.90;99.90
2363;DHT22;1192;51.664;7.626;2022-07-10T14:30:52;19.90;99.90
2363;DHT22;1192;51.664;7.626;2022-07-10T14:33:19;19.90;99.90
2363;DHT22;1192;51.664;7.626;2022-07-10T14:35:46;19.90;99.90
2363;DHT22;1192;51.664;7.626;2022-07-10T14:38:13;19.90;99.90
2363;DHT22;1192;51.664;7.626;2022-07-10T14:40:41;20.00;99.90
2363;DHT22;1192;51.664;7.626;2022-07-10T14:43:07;20.00;99.90
2363;DHT22;1192;51.664;7.626;2022-07-10T14:45:34;20.00;99.90
2363;DHT22;1192;51.664;7.626;2022-07-10T14:48:01;20.00;99.90
2363;DHT22;1192;51.664;7.626;2022-07-10T14:50:27;19.90;99.90
2363;DHT22;1192;51.664;7.626;2022-07-10T14:52:54;19.90;99.90
2363;DHT22;1192;51.664;7.626;2022-07-10T14:55:21;19.90;99.90
2363;DHT22;1192;51.664;7.626;2022-07-10T14:57:49;19.90;99.90
2363;DHT22;1192;51.664;7.626;2022-07-10T15:00:16;19.80;99.90
2363;DHT22;1192;51.664;7.626;2022-07-10T15:02:44;19.80;99.90
2363;DHT22;1192;51.664;7.626;2022-07-10T15:05:10;19.80;99.90
2363;DHT22;1192;51.664;7.626;2022-07-10T15:07:37;19.70;99.90
2363;DHT22;1192;51.664;7.626;2022-07-10T15:10:04;19.70;99.90
2363;DHT22;1192;51.664;7.626;2022-07-10T15:12:33;19.70;99.90
2363;DHT22;1192;51.664;7.626;2022-07-10T15:15:04;19.70;99.90
2363;DHT22;1192;51.664;7.626;2022-07-10T15:17:33;19.70;99.90
2363;DHT22;1192;51.664;7.626;2022-07-10T15:20:00;19.70;99.90
2363;DHT22;1192;51.664;7.626;2022-07-10T15:22:26;19.70;99.90
2363;DHT22;1192;51.664;7.626;2022-07-10T15:24:53;19.70;99.90
2363;DHT22;1192;51.664;7.626;2022-07-10T15:27:20;19.70;99.90
2363;DHT22;1192;51.664;7.626;2022-07-10T15:29:46;19.70;99.90
2363;DHT22;1192;51.664;7.626;2022-07-10T15:32:14;19.80;99.90
2363;DHT22;1192;51.664;7.626;2022-07-10T15:34:41;19.70;99.90
2363;DHT22;1192;51.664;7.626;2022-07-10T15:37:08;19.70;99.90
2363;DHT22;1192;51.664;7.626;2022-07-10T15:39:35;19.70;99.90
2363;DHT22;1192;51.664;7.626;2022-07-10T15:42:07;19.70;99.90
2363;DHT22;1192;51.664;7.626;2022-07-10T15:44:34;19.70;99.90
2363;DHT22;1192;51.664;7.626;2022-07-10T15:47:01;19.70;99.90
2363;DHT22;1192;51.664;7.626;2022-07-10T15:49:29;19.70;99.90
2363;DHT22;1192;51.664;7.626;2022-07-10T15:51:56;19.70;99.90
2363;DHT22;1192;51.664;7.626;2022-07-10T15:54:24;19.70;99.90
2363;DHT22;1192;51.664;7.626;2022-07-10T15:56:51;19.70;99.90
2363;DHT22;1192;51.664;7.626;2022-07-10T15:59:18;19.70;99.90
2363;DHT22;1192;51.664;7.626;2022-07-10T16:01:49;19.70;99.90
2363;DHT22;1192;51.664;7.626;2022-07-10T16:04:16;19.70;99.90
2363;DHT22;1192;51.664;7.626;2022-07-10T16:06:44;19.70;99.90
2363;DHT22;1192;51.664;7.626;2022-07-10T16:09:11;19.70;99.90
2363;DHT22;1192;51.664;7.626;2022-07-10T16:11:38;19.70;99.90
2363;DHT22;1192;51.664;7.626;2022-07-10T16:14:06;19.80;99.90